createdAt,value
2022-12-03T00:00:36.420Z,101127.63
2022-12-03T00:03:55.356Z,101118.09
2022-12-03T00:06:58.497Z,101129.53
2022-12-03T00:10:01.129Z,101132.47
2022-12-03T00:13:03.940Z,101132.69
2022-12-03T00:16:06.974Z,101131.87
2022-12-03T00:19:11.166Z,101139.41
2022-12-03T00:22:13.907Z,101140.47
2022-12-03T00:25:17.819Z,101140.47
2022-12-03T00:28:20.799Z,101137.88
2022-12-03T00:31:24.510Z,101140.75
2022-12-03T00:34:27.247Z,101149.88
2022-12-03T00:37:30.171Z,101144.81
2022-12-03T00:40:32.969Z,101152.59
2022-12-03T00:43:35.760Z,101151.47
2022-12-03T00:46:38.596Z,101152.34
2022-12-03T00:49:41.930Z,101165.28
2022-12-03T00:52:44.859Z,101150.31
2022-12-03T00:55:47.593Z,101149.88
2022-12-03T00:58:50.752Z,101150.44
2022-12-03T01:01:53.788Z,101148.09
2022-12-03T01:04:56.981Z,101150.69
2022-12-03T01:08:00.183Z,101147.75
2022-12-03T01:11:03.208Z,101150.00
2022-12-03T01:14:11.907Z,101148.31
2022-12-03T01:17:14.782Z,101146.75
2022-12-03T01:20:17.587Z,101148.22
2022-12-03T01:23:20.423Z,101148.31
2022-12-03T01:26:23.425Z,101139.00
2022-12-03T01:29:26.312Z,101142.34
2022-12-03T01:32:29.083Z,101150.12
2022-12-03T01:35:31.865Z,101151.47
2022-12-03T01:38:34.713Z,101156.88
2022-12-03T01:41:38.202Z,101152.59
2022-12-03T01:44:41.132Z,101155.97
2022-12-03T01:47:43.746Z,101158.97
2022-12-03T01:50:46.597Z,101155.75
2022-12-03T01:53:50.224Z,101164.38
2022-12-03T01:56:56.177Z,101162.69
2022-12-03T02:00:00.390Z,101164.84
2022-12-03T02:03:11.006Z,101157.09
2022-12-03T02:06:21.255Z,101157.88
2022-12-03T02:09:24.012Z,101157.88
2022-12-03T02:12:40.946Z,101161.56
2022-12-03T02:15:43.905Z,101156.50
2022-12-03T02:18:47.013Z,101147.41
2022-12-03T02:21:49.674Z,101141.34
2022-12-03T02:24:59.173Z,101145.75
2022-12-03T02:28:03.615Z,101137.63
2022-12-03T02:31:06.616Z,101146.28
2022-12-03T02:34:10.996Z,101144.16
2022-12-03T02:37:30.756Z,101147.75
2022-12-03T02:40:34.432Z,101155.84
2022-12-03T02:43:39.991Z,101147.41
2022-12-03T02:46:43.563Z,101148.41
2022-12-03T02:49:46.482Z,101148.63
2022-12-03T02:52:50.327Z,101154.50
2022-12-03T02:55:56.171Z,101146.28
2022-12-03T02:59:03.167Z,101143.94
2022-12-03T03:02:06.306Z,101157.75
2022-12-03T03:05:11.843Z,101155.50
2022-12-03T03:08:14.678Z,101155.84
2022-12-03T03:11:18.666Z,101147.66
2022-12-03T03:14:21.428Z,101150.47
2022-12-03T03:17:24.262Z,101141.13
2022-12-03T03:20:27.001Z,101138.78
2022-12-03T03:23:29.928Z,101141.59
2022-12-03T03:26:32.723Z,101144.81
2022-12-03T03:29:36.019Z,101154.28
2022-12-03T03:32:40.153Z,101158.66
2022-12-03T03:35:45.222Z,101153.59
2022-12-03T03:38:48.578Z,101150.88
2022-12-03T03:41:51.502Z,101147.28
2022-12-03T03:44:55.646Z,101150.12
2022-12-03T03:48:00.128Z,101144.16
2022-12-03T03:51:08.842Z,101140.00
2022-12-03T03:54:12.249Z,101145.28
2022-12-03T03:57:15.120Z,101149.75
2022-12-03T04:00:18.251Z,101146.28
2022-12-03T04:03:20.989Z,101143.69
2022-12-03T04:06:23.777Z,101155.16
2022-12-03T04:09:26.490Z,101139.66
2022-12-03T04:12:48.130Z,101143.22
2022-12-03T04:15:50.866Z,101152.81
2022-12-03T04:18:53.671Z,101156.06
2022-12-03T04:22:15.024Z,101150.00
2022-12-03T04:25:36.729Z,101151.47
2022-12-03T04:28:51.521Z,101161.44
2022-12-03T04:32:12.875Z,101148.75
2022-12-03T04:35:34.541Z,101148.66
2022-12-03T04:38:37.317Z,101150.44
2022-12-03T04:41:40.283Z,101156.75
2022-12-03T04:44:43.234Z,101157.31
2022-12-03T04:47:46.127Z,101152.94
2022-12-03T04:50:48.886Z,101145.94
2022-12-03T04:53:51.714Z,101153.59
2022-12-03T04:56:54.575Z,101159.91
2022-12-03T04:59:57.302Z,101155.50
2022-12-03T05:03:00.637Z,101160.00
2022-12-03T05:06:04.464Z,101162.25
2022-12-03T05:09:07.203Z,101168.97
2022-12-03T05:12:09.953Z,101168.87
2022-12-03T05:15:12.691Z,101173.84
2022-12-03T05:18:15.426Z,101163.03
2022-12-03T05:21:18.197Z,101177.78
2022-12-03T05:24:20.988Z,101184.84
2022-12-03T05:27:24.386Z,101181.78
2022-12-03T05:30:27.329Z,101177.41
2022-12-03T05:33:30.131Z,101174.94
2022-12-03T05:36:33.004Z,101172.25
2022-12-03T05:39:35.830Z,101166.16
2022-12-03T05:42:54.236Z,101167.09
2022-12-03T05:45:57.033Z,101175.72
2022-12-03T05:48:59.821Z,101180.88
2022-12-03T05:52:02.643Z,101182.25
2022-12-03T05:55:06.403Z,101176.50
2022-12-03T05:58:09.248Z,101176.63
2022-12-03T06:01:12.799Z,101187.06
2022-12-03T06:04:16.268Z,101184.25
2022-12-03T06:07:18.841Z,101191.47
2022-12-03T06:10:24.108Z,101210.56
2022-12-03T06:13:26.526Z,101195.06
2022-12-03T06:16:29.923Z,101202.03
2022-12-03T06:19:33.686Z,101196.06
2022-12-03T06:22:36.726Z,101186.63
2022-12-03T06:25:39.205Z,101186.88
2022-12-03T06:28:47.608Z,101189.53
2022-12-03T06:31:50.139Z,101191.94
2022-12-03T06:34:53.565Z,101188.00
2022-12-03T06:37:56.125Z,101187.75
2022-12-03T06:40:59.236Z,101182.59
2022-12-03T06:44:01.706Z,101192.16
2022-12-03T06:47:04.728Z,101203.94
2022-12-03T06:50:09.318Z,101206.50
2022-12-03T06:53:12.345Z,101196.75
2022-12-03T06:56:16.900Z,101198.00
2022-12-03T06:59:23.232Z,101197.62
2022-12-03T07:02:25.773Z,101195.87
2022-12-03T07:05:28.954Z,101195.97
2022-12-03T07:08:31.517Z,101197.22
2022-12-03T07:11:40.550Z,101194.38
2022-12-03T07:14:43.229Z,101197.44
2022-12-03T07:17:46.269Z,101212.03
2022-12-03T07:20:50.954Z,101195.63
2022-12-03T07:23:55.902Z,101194.72
2022-12-03T07:26:58.553Z,101200.44
2022-12-03T07:30:01.706Z,101208.09
2022-12-03T07:33:04.221Z,101209.13
2022-12-03T07:36:09.555Z,101199.44
2022-12-03T07:39:12.940Z,101213.81
2022-12-03T07:42:15.907Z,101208.28
2022-12-03T07:45:18.366Z,101202.72
2022-12-03T07:48:21.390Z,101202.13
2022-12-03T07:51:27.508Z,101211.59
2022-12-03T07:54:34.902Z,101202.25
2022-12-03T07:57:37.722Z,101198.94
2022-12-03T08:00:40.823Z,101200.75
2022-12-03T08:03:43.704Z,101196.16
2022-12-03T08:06:46.795Z,101204.00
2022-12-03T08:09:50.391Z,101199.94
2022-12-03T08:12:53.874Z,101203.84
2022-12-03T08:16:00.874Z,101195.63
2022-12-03T08:19:09.335Z,101209.31
2022-12-03T08:22:15.809Z,101203.97
2022-12-03T08:25:21.561Z,101207.22
2022-12-03T08:28:26.746Z,101209.09
2022-12-03T08:31:33.737Z,101214.91
2022-12-03T08:34:43.197Z,101204.47
2022-12-03T08:37:45.978Z,101209.47
2022-12-03T08:40:51.225Z,101212.19
2022-12-03T08:43:53.975Z,101205.25
2022-12-03T08:47:09.014Z,101203.16
2022-12-03T08:50:32.903Z,101202.19
2022-12-03T08:53:36.922Z,101201.50
2022-12-03T08:56:39.500Z,101210.09
2022-12-03T08:59:45.455Z,101225.53
2022-12-03T09:02:54.518Z,101227.34
2022-12-03T09:05:57.345Z,101228.97
2022-12-03T09:09:05.151Z,101232.25
2022-12-03T09:12:09.537Z,101224.41
2022-12-03T09:15:12.298Z,101205.34
2022-12-03T09:18:15.221Z,101208.84
2022-12-03T09:21:18.033Z,101210.97
2022-12-03T09:24:21.418Z,101212.84
2022-12-03T09:27:24.274Z,101207.09
2022-12-03T09:30:27.057Z,101198.53
2022-12-03T09:33:32.396Z,101191.28
2022-12-03T09:36:35.215Z,101194.44
2022-12-03T09:39:37.997Z,101182.72
2022-12-03T09:42:41.424Z,101191.09
2022-12-03T09:45:49.425Z,101192.56
2022-12-03T09:48:52.486Z,101189.81
2022-12-03T09:51:57.476Z,101184.69
2022-12-03T09:55:14.002Z,101180.59
2022-12-03T09:58:19.114Z,101182.41
2022-12-03T10:01:22.435Z,101177.81
2022-12-03T10:04:29.885Z,101176.28
2022-12-03T10:07:32.512Z,101178.81
2022-12-03T10:10:37.630Z,101174.56
2022-12-03T10:13:40.787Z,101171.03
2022-12-03T10:16:44.039Z,101156.16
2022-12-03T10:19:46.919Z,101142.88
2022-12-03T10:22:50.218Z,101138.81
2022-12-03T10:26:10.745Z,101139.50
2022-12-03T10:29:17.054Z,101131.00
2022-12-03T10:32:38.233Z,101129.69
2022-12-03T10:35:41.464Z,101121.00
2022-12-03T10:38:44.723Z,101116.44
2022-12-03T10:41:49.148Z,101117.41
2022-12-03T10:45:18.379Z,101108.91
2022-12-03T10:48:27.564Z,101104.09
2022-12-03T10:51:30.561Z,101101.44
2022-12-03T10:54:35.871Z,101098.09
2022-12-03T10:57:43.720Z,101091.78
2022-12-03T11:00:50.800Z,101095.44
2022-12-03T11:03:56.632Z,101082.44
2022-12-03T11:07:02.503Z,101098.81
2022-12-03T11:10:12.272Z,101086.06
2022-12-03T11:13:33.503Z,101083.44
2022-12-03T11:16:41.874Z,101080.31
2022-12-03T11:19:48.791Z,101077.59
2022-12-03T11:22:52.050Z,101070.75
2022-12-03T11:25:55.042Z,101069.44
2022-12-03T11:28:59.224Z,101058.34
2022-12-03T11:32:02.342Z,101057.66
2022-12-03T11:35:12.688Z,101056.69
2022-12-03T11:38:37.848Z,101053.06
2022-12-03T11:41:40.393Z,101050.00
2022-12-03T11:44:43.594Z,101046.41
2022-12-03T11:47:58.074Z,101044.91
2022-12-03T11:51:01.312Z,101046.34
2022-12-03T11:54:03.782Z,101037.34
2022-12-03T11:57:26.820Z,101049.84
2022-12-03T12:00:30.060Z,101043.63
2022-12-03T12:03:45.886Z,101036.00
2022-12-03T12:06:53.203Z,101032.06
2022-12-03T12:09:57.473Z,101034.13
2022-12-03T12:13:00.117Z,101036.31
2022-12-03T12:16:06.643Z,101030.94
2022-12-03T12:19:41.402Z,101029.97
2022-12-03T12:22:44.758Z,101016.00
2022-12-03T12:25:52.442Z,101023.91
2022-12-03T12:28:57.094Z,101018.53
2022-12-03T12:32:23.150Z,101013.78
2022-12-03T12:35:30.821Z,101010.34
2022-12-03T12:38:33.479Z,101021.94
2022-12-03T12:41:36.462Z,101018.38
2022-12-03T12:44:38.933Z,101022.44
2022-12-03T12:47:46.473Z,101018.62
2022-12-03T12:51:06.183Z,101014.56
2022-12-03T12:54:15.278Z,101024.69
2022-12-03T12:57:22.383Z,101015.69
2022-12-03T13:00:25.463Z,101009.69
2022-12-03T13:03:33.668Z,101005.25
2022-12-03T13:06:39.602Z,101018.97
2022-12-03T13:09:44.551Z,101019.84
2022-12-03T13:12:47.794Z,101018.09
2022-12-03T13:16:07.136Z,101009.16
2022-12-03T13:19:39.598Z,101016.16
2022-12-03T13:22:48.807Z,101024.13
2022-12-03T13:26:02.311Z,101022.31
2022-12-03T13:29:15.830Z,101030.00
2022-12-03T13:32:19.783Z,101020.16
2022-12-03T13:35:25.120Z,101023.00
2022-12-03T13:38:28.065Z,101025.12
2022-12-03T13:41:49.298Z,101039.94
2022-12-03T13:44:53.628Z,101033.59
2022-12-03T13:48:01.237Z,101030.66
2022-12-03T13:51:35.262Z,101036.84
2022-12-03T13:54:39.313Z,101027.75
2022-12-03T13:57:42.464Z,101031.72
2022-12-03T14:00:45.997Z,101027.81
2022-12-03T14:03:50.730Z,101034.63
2022-12-03T14:06:53.655Z,101031.94
2022-12-03T14:09:57.070Z,101036.09
2022-12-03T14:12:59.852Z,101040.94
2022-12-03T14:16:02.921Z,101051.06
2022-12-03T14:19:06.261Z,101050.37
2022-12-03T14:22:10.049Z,101040.69
2022-12-03T14:25:12.611Z,101043.84
2022-12-03T14:28:15.689Z,101042.03
2022-12-03T14:31:18.260Z,101043.56
2022-12-03T14:34:21.320Z,101043.47
2022-12-03T14:37:23.882Z,101046.09
2022-12-03T14:40:27.235Z,101048.28
2022-12-03T14:43:29.888Z,101037.59
2022-12-03T14:46:33.357Z,101052.12
2022-12-03T14:49:36.326Z,101053.03
2022-12-03T14:52:39.351Z,101053.59
2022-12-03T14:55:41.928Z,101057.66
2022-12-03T14:58:44.969Z,101056.41
2022-12-03T15:01:47.450Z,101050.78
2022-12-03T15:04:50.564Z,101058.41
2022-12-03T15:07:53.154Z,101062.44
2022-12-03T15:10:56.498Z,101059.81
2022-12-03T15:13:59.135Z,101059.09
2022-12-03T15:17:02.175Z,101055.59
2022-12-03T15:20:05.259Z,101058.03
2022-12-03T15:23:13.892Z,101062.69
2022-12-03T15:26:17.026Z,101057.50
2022-12-03T15:29:20.804Z,101060.59
2022-12-03T15:32:23.287Z,101056.03
2022-12-03T15:35:26.349Z,101064.44
2022-12-03T15:38:28.866Z,101074.81
2022-12-03T15:41:31.970Z,101066.69
2022-12-03T15:44:34.655Z,101068.31
2022-12-03T15:47:39.045Z,101073.66
2022-12-03T15:50:41.571Z,101067.47
2022-12-03T15:53:44.698Z,101061.13
2022-12-03T15:56:47.194Z,101054.94
2022-12-03T15:59:51.584Z,101065.13
2022-12-03T16:02:54.492Z,101064.66
2022-12-03T16:05:57.630Z,101059.38
2022-12-03T16:09:00.128Z,101061.72
2022-12-03T16:12:03.357Z,101060.94
2022-12-03T16:15:06.324Z,101066.22
2022-12-03T16:18:09.568Z,101071.31
2022-12-03T16:21:12.046Z,101068.72
2022-12-03T16:24:15.391Z,101071.31
2022-12-03T16:27:21.587Z,101076.50
2022-12-03T16:30:27.335Z,101077.22
2022-12-03T16:33:29.930Z,101080.50
2022-12-03T16:36:33.119Z,101078.63
2022-12-03T16:39:35.562Z,101074.88
2022-12-03T16:42:38.637Z,101076.44
2022-12-03T16:46:13.459Z,101080.75
2022-12-03T16:49:16.605Z,101077.25
2022-12-03T16:52:19.113Z,101085.03
2022-12-03T16:55:22.312Z,101073.50
2022-12-03T16:58:24.771Z,101075.25
2022-12-03T17:01:27.970Z,101075.06
2022-12-03T17:04:30.708Z,101081.66
2022-12-03T17:07:33.868Z,101078.91
2022-12-03T17:10:36.452Z,101076.38
2022-12-03T17:13:39.687Z,101077.97
2022-12-03T17:16:42.256Z,101087.66
2022-12-03T17:19:45.446Z,101071.91
2022-12-03T17:22:47.949Z,101081.19
2022-12-03T17:25:51.190Z,101076.00
2022-12-03T17:28:53.648Z,101073.12
2022-12-03T17:31:56.983Z,101084.09
2022-12-03T17:34:59.714Z,101085.97
2022-12-03T17:38:02.852Z,101083.28
2022-12-03T17:41:05.554Z,101080.59
2022-12-03T17:44:10.837Z,101084.69
2022-12-03T17:47:15.534Z,101079.19
2022-12-03T17:50:18.666Z,101083.09
2022-12-03T17:53:21.404Z,101084.91
2022-12-03T17:56:24.430Z,101090.47
2022-12-03T17:59:26.981Z,101084.47
2022-12-03T18:02:30.285Z,101090.06
2022-12-03T18:05:33.111Z,101078.72
2022-12-03T18:08:35.881Z,101082.00
2022-12-03T18:11:38.943Z,101084.47
2022-12-03T18:14:43.293Z,101085.66
2022-12-03T18:17:46.145Z,101083.69
2022-12-03T18:20:49.026Z,101087.19
2022-12-03T18:23:52.582Z,101083.81
2022-12-03T18:26:55.268Z,101083.09
2022-12-03T18:30:00.120Z,101078.94
2022-12-03T18:33:02.937Z,101072.47
2022-12-03T18:36:09.437Z,101066.66
2022-12-03T18:39:26.613Z,101084.03
2022-12-03T18:42:29.443Z,101082.72
2022-12-03T18:45:32.300Z,101084.13
2022-12-03T18:48:35.066Z,101084.28
2022-12-03T18:51:37.985Z,101081.69
2022-12-03T18:54:40.853Z,101089.47
2022-12-03T18:57:43.791Z,101085.69
2022-12-03T19:00:46.745Z,101084.19
2022-12-03T19:03:53.280Z,101080.22
2022-12-03T19:06:58.227Z,101088.00
2022-12-03T19:10:01.035Z,101085.19
2022-12-03T19:13:03.967Z,101077.91
2022-12-03T19:16:08.754Z,101080.59
2022-12-03T19:19:12.022Z,101083.50
2022-12-03T19:22:14.799Z,101084.28
2022-12-03T19:25:18.420Z,101093.56
2022-12-03T19:28:21.390Z,101081.09
2022-12-03T19:31:26.297Z,101085.88
2022-12-03T19:34:29.326Z,101085.69
2022-12-03T19:37:33.708Z,101089.47
2022-12-03T19:40:36.573Z,101098.84
2022-12-03T19:43:39.897Z,101099.03
2022-12-03T19:46:43.489Z,101102.31
2022-12-03T19:49:46.260Z,101102.31
2022-12-03T19:52:50.018Z,101109.00
2022-12-03T19:55:53.273Z,101109.19
2022-12-03T19:58:56.772Z,101105.81
2022-12-03T20:01:59.578Z,101104.84
2022-12-03T20:05:02.625Z,101106.03
2022-12-03T20:08:06.615Z,101107.50
2022-12-03T20:11:12.695Z,101104.03
2022-12-03T20:14:16.186Z,101102.03
2022-12-03T20:17:19.243Z,101103.12
2022-12-03T20:20:22.003Z,101100.12
2022-12-03T20:23:25.386Z,101107.22
2022-12-03T20:26:28.799Z,101104.31
2022-12-03T20:29:31.923Z,101110.47
2022-12-03T20:32:40.723Z,101107.00
2022-12-03T20:35:51.357Z,101092.47
2022-12-03T20:38:55.724Z,101098.94
2022-12-03T20:41:58.902Z,101100.75
2022-12-03T20:45:03.183Z,101098.84
2022-12-03T20:48:06.867Z,101106.91
2022-12-03T20:51:11.688Z,101105.31
2022-12-03T20:54:15.021Z,101103.44
2022-12-03T20:57:17.645Z,101099.94
2022-12-03T21:00:24.010Z,101094.75
2022-12-03T21:03:26.542Z,101105.00
2022-12-03T21:06:34.056Z,101102.41
2022-12-03T21:09:36.951Z,101098.06
2022-12-03T21:12:41.915Z,101100.66
2022-12-03T21:15:48.346Z,101097.94
2022-12-03T21:18:52.683Z,101094.37
2022-12-03T21:21:55.307Z,101095.66
2022-12-03T21:24:59.438Z,101082.88
2022-12-03T21:28:06.674Z,101082.38
2022-12-03T21:31:13.846Z,101084.37
2022-12-03T21:34:16.579Z,101091.25
2022-12-03T21:37:19.750Z,101107.78
2022-12-03T21:40:22.532Z,101110.16
2022-12-03T21:43:25.767Z,101090.56
2022-12-03T21:47:11.763Z,101090.28
2022-12-03T21:49:51.816Z,101088.06
2022-12-03T21:52:54.997Z,101082.09
2022-12-03T21:55:58.879Z,101088.47
2022-12-03T21:59:01.385Z,101078.13
2022-12-03T22:02:04.631Z,101078.31
2022-12-03T22:05:08.595Z,101086.78
2022-12-03T22:08:12.758Z,101083.28
2022-12-03T22:11:19.399Z,101080.69
2022-12-03T22:14:22.288Z,101079.81
2022-12-03T22:17:25.672Z,101072.47
2022-12-03T22:20:28.405Z,101078.94
2022-12-03T22:23:33.230Z,101080.28
2022-12-03T22:26:36.026Z,101078.41
2022-12-03T22:29:38.967Z,101079.62
2022-12-03T22:32:41.733Z,101079.41
2022-12-03T22:35:53.679Z,101068.94
2022-12-03T22:38:56.728Z,101068.56
2022-12-03T22:41:59.553Z,101072.53
2022-12-03T22:45:02.354Z,101060.97
2022-12-03T22:48:05.398Z,101060.06
2022-12-03T22:51:24.269Z,101061.69
2022-12-03T22:54:27.447Z,101058.69
2022-12-03T22:57:31.386Z,101062.25
2022-12-03T23:00:37.259Z,101069.56
2022-12-03T23:03:40.043Z,101063.47
2022-12-03T23:06:43.593Z,101064.06
2022-12-03T23:09:46.259Z,101056.59
2022-12-03T23:12:48.985Z,101056.09
2022-12-03T23:15:52.396Z,101059.88
2022-12-03T23:18:55.561Z,101055.69
2022-12-03T23:21:58.340Z,101050.81
2022-12-03T23:25:01.111Z,101060.06
2022-12-03T23:28:04.754Z,101058.28
2022-12-03T23:31:17.147Z,101050.44
2022-12-03T23:34:20.038Z,101053.72
2022-12-03T23:37:23.700Z,101044.13
2022-12-03T23:40:26.656Z,101043.03
2022-12-03T23:43:29.419Z,101039.25
2022-12-03T23:46:32.238Z,101040.25
2022-12-03T23:49:35.201Z,101039.97
2022-12-03T23:52:38.158Z,101042.72
2022-12-03T23:55:41.471Z,101034.97
2022-12-03T23:58:45.150Z,101035.06
